createdAt,value
2022-08-29T00:00:47.357Z,100478.94
2022-08-29T00:04:16.505Z,100485.10
2022-08-29T00:07:47.204Z,100483.23
2022-08-29T00:11:17.111Z,100482.36
2022-08-29T00:14:47.342Z,100475.93
2022-08-29T00:18:17.667Z,100471.39
2022-08-29T00:21:46.262Z,100467.44
2022-08-29T00:25:15.074Z,100460.16
2022-08-29T00:28:50.675Z,100460.95
2022-08-29T00:32:23.087Z,100461.14
2022-08-29T00:35:50.661Z,100461.48
2022-08-29T00:39:23.718Z,100462.14
2022-08-29T00:42:55.293Z,100466.80
2022-08-29T00:46:46.833Z,100467.27
2022-08-29T00:50:27.726Z,100468.92
2022-08-29T00:54:03.629Z,100476.23
2022-08-29T00:57:35.235Z,100478.67
2022-08-29T01:01:05.398Z,100479.30
2022-08-29T01:04:32.164Z,100479.63
2022-08-29T01:08:04.429Z,100477.05
2022-08-29T01:11:52.027Z,100477.98
2022-08-29T01:15:19.796Z,100481.52
2022-08-29T01:18:50.383Z,100481.80
2022-08-29T01:22:47.721Z,100488.63
2022-08-29T01:26:30.748Z,100490.56
2022-08-29T01:30:09.769Z,100492.36
2022-08-29T01:33:49.547Z,100494.09
2022-08-29T01:37:30.404Z,100500.59
2022-08-29T01:40:58.950Z,100506.36
2022-08-29T01:44:31.480Z,100510.70
2022-08-29T01:48:01.867Z,100508.69
2022-08-29T01:51:30.710Z,100512.85
2022-08-29T01:54:59.398Z,100522.35
2022-08-29T01:58:28.633Z,100523.13
2022-08-29T02:02:01.396Z,100523.73
2022-08-29T02:05:30.409Z,100523.30
2022-08-29T02:08:59.708Z,100525.66
2022-08-29T02:12:30.139Z,100524.86
2022-08-29T02:15:57.991Z,100529.33
2022-08-29T02:19:28.772Z,100522.98
2022-08-29T02:22:58.278Z,100525.45
2022-08-29T02:26:26.771Z,100523.98
2022-08-29T02:29:54.332Z,100521.47
2022-08-29T02:33:22.737Z,100518.54
2022-08-29T02:36:50.806Z,100519.45
2022-08-29T02:40:18.322Z,100521.39
2022-08-29T02:43:59.363Z,100523.14
2022-08-29T02:47:44.065Z,100528.34
2022-08-29T02:51:27.973Z,100532.27
2022-08-29T02:54:58.345Z,100529.47
2022-08-29T02:58:42.657Z,100525.33
2022-08-29T03:02:17.950Z,100529.39
2022-08-29T03:05:47.719Z,100530.13
2022-08-29T03:09:46.108Z,100531.94
2022-08-29T03:13:13.948Z,100535.02
2022-08-29T03:16:43.498Z,100535.30
2022-08-29T03:20:16.291Z,100536.84
2022-08-29T03:23:44.831Z,100535.09
2022-08-29T03:27:14.154Z,100537.33
2022-08-29T03:31:13.672Z,100535.10
2022-08-29T03:34:47.849Z,100534.23
2022-08-29T03:38:15.387Z,100538.83
2022-08-29T03:41:43.364Z,100532.21
2022-08-29T03:45:15.701Z,100530.55
2022-08-29T03:48:43.572Z,100531.02
2022-08-29T03:52:12.848Z,100534.63
2022-08-29T03:55:41.244Z,100536.11
2022-08-29T03:59:09.112Z,100538.98
2022-08-29T04:02:38.861Z,100538.23
2022-08-29T04:06:09.080Z,100544.23
2022-08-29T04:09:39.600Z,100547.08
2022-08-29T04:13:07.867Z,100553.48
2022-08-29T04:16:36.514Z,100551.81
2022-08-29T04:20:05.004Z,100557.16
2022-08-29T04:23:32.123Z,100554.14
2022-08-29T04:26:59.707Z,100553.11
2022-08-29T04:30:29.860Z,100555.91
2022-08-29T04:33:57.471Z,100556.44
2022-08-29T04:37:25.256Z,100555.31
2022-08-29T04:40:52.780Z,100555.31
2022-08-29T04:44:24.777Z,100554.46
2022-08-29T04:47:52.043Z,100556.05
2022-08-29T04:51:20.518Z,100552.16
2022-08-29T04:54:57.738Z,100556.88
2022-08-29T04:58:25.586Z,100561.53
2022-08-29T05:01:54.689Z,100559.52
2022-08-29T05:05:24.395Z,100560.75
2022-08-29T05:08:59.865Z,100560.36
2022-08-29T05:12:29.651Z,100563.45
2022-08-29T05:16:02.929Z,100565.30
2022-08-29T05:19:34.547Z,100566.30
2022-08-29T05:23:04.189Z,100571.28
2022-08-29T05:26:37.388Z,100577.45
2022-08-29T05:30:04.893Z,100577.94
2022-08-29T05:33:33.197Z,100581.12
2022-08-29T05:37:06.191Z,100581.26
2022-08-29T05:40:37.416Z,100578.48
2022-08-29T05:44:06.652Z,100573.00
2022-08-29T05:47:36.901Z,100574.80
2022-08-29T05:51:05.387Z,100576.38
2022-08-29T05:54:34.516Z,100573.82
2022-08-29T05:58:02.852Z,100573.00
2022-08-29T06:01:33.185Z,100571.99
2022-08-29T06:05:05.775Z,100575.42
2022-08-29T06:08:34.908Z,100578.89
2022-08-29T06:12:01.976Z,100582.23
2022-08-29T06:15:30.210Z,100587.38
2022-08-29T06:18:58.711Z,100588.21
2022-08-29T06:22:27.081Z,100590.23
2022-08-29T06:26:00.691Z,100595.17
2022-08-29T06:29:28.486Z,100597.07
2022-08-29T06:32:55.507Z,100597.96
2022-08-29T06:36:23.185Z,100605.38
2022-08-29T06:39:51.192Z,100602.92
2022-08-29T06:43:19.068Z,100606.92
2022-08-29T06:46:48.795Z,100617.08
2022-08-29T06:50:17.611Z,100621.23
2022-08-29T06:53:46.062Z,100627.38
2022-08-29T06:57:14.960Z,100625.35
2022-08-29T07:00:49.510Z,100630.55
2022-08-29T07:04:20.734Z,100635.85
2022-08-29T07:07:49.105Z,100631.40
2022-08-29T07:11:18.952Z,100630.29
2022-08-29T07:14:45.773Z,100630.14
2022-08-29T07:18:13.900Z,100631.60
2022-08-29T07:21:41.321Z,100633.16
2022-08-29T07:25:11.718Z,100641.38
2022-08-29T07:28:40.631Z,100640.73
2022-08-29T07:32:12.209Z,100645.52
2022-08-29T07:35:39.473Z,100648.14
2022-08-29T07:39:11.017Z,100648.61
2022-08-29T07:42:38.143Z,100647.80
2022-08-29T07:46:09.527Z,100652.66
2022-08-29T07:49:41.579Z,100655.86
2022-08-29T07:53:09.230Z,100652.88
2022-08-29T07:56:41.060Z,100655.28
2022-08-29T08:00:12.413Z,100654.80
2022-08-29T08:03:39.476Z,100654.81
2022-08-29T08:07:13.615Z,100656.09
2022-08-29T08:10:42.780Z,100661.66
2022-08-29T08:14:11.794Z,100664.95
2022-08-29T08:17:43.795Z,100671.95
2022-08-29T08:21:12.367Z,100677.98
2022-08-29T08:24:40.032Z,100687.89
2022-08-29T08:28:07.478Z,100686.50
2022-08-29T08:31:35.074Z,100687.70
2022-08-29T08:35:03.161Z,100692.33
2022-08-29T08:38:31.775Z,100692.77
2022-08-29T08:42:04.980Z,100691.77
2022-08-29T08:45:38.214Z,100692.71
2022-08-29T08:49:13.848Z,100695.20
2022-08-29T08:52:50.500Z,100695.40
2022-08-29T08:56:24.138Z,100695.99
2022-08-29T09:00:06.794Z,100693.40
2022-08-29T09:04:07.821Z,100694.91
2022-08-29T09:07:50.402Z,100696.89
2022-08-29T09:11:27.457Z,100698.20
2022-08-29T09:15:10.475Z,100699.33
2022-08-29T09:18:43.774Z,100703.46
2022-08-29T09:22:27.762Z,100706.04
2022-08-29T09:26:02.001Z,100698.33
2022-08-29T09:29:41.411Z,100699.11
2022-08-29T09:33:12.605Z,100696.02
2022-08-29T09:36:51.785Z,100689.00
2022-08-29T09:40:19.595Z,100690.76
2022-08-29T09:43:52.747Z,100693.92
2022-08-29T09:47:25.151Z,100694.38
2022-08-29T09:51:16.912Z,100698.41
2022-08-29T09:54:45.877Z,100699.85
2022-08-29T09:58:40.046Z,100692.32
2022-08-29T10:02:22.495Z,100689.17
2022-08-29T10:05:51.461Z,100689.52
2022-08-29T10:09:29.126Z,100691.48
2022-08-29T10:13:02.863Z,100689.47
2022-08-29T10:16:41.194Z,100687.52
2022-08-29T10:20:11.920Z,100687.28
2022-08-29T10:23:52.379Z,100687.05
2022-08-29T10:27:32.667Z,100684.84
2022-08-29T10:31:07.026Z,100680.80
2022-08-29T10:34:49.342Z,100678.60
2022-08-29T10:38:28.687Z,100675.15
2022-08-29T10:42:01.234Z,100673.41
2022-08-29T10:45:37.025Z,100674.63
2022-08-29T10:49:12.836Z,100668.41
2022-08-29T10:52:53.497Z,100669.65
2022-08-29T10:56:38.742Z,100670.23
2022-08-29T11:00:09.757Z,100670.61
2022-08-29T11:03:44.988Z,100671.50
2022-08-29T11:07:23.286Z,100667.52
2022-08-29T11:11:01.716Z,100665.77
2022-08-29T11:14:54.262Z,100663.14
2022-08-29T11:18:26.659Z,100652.70
2022-08-29T11:22:03.174Z,100656.77
2022-08-29T11:25:33.038Z,100666.02
2022-08-29T11:29:20.043Z,100667.20
2022-08-29T11:33:06.362Z,100663.87
2022-08-29T11:36:54.495Z,100666.13
2022-08-29T11:41:33.777Z,100669.48
2022-08-29T11:45:39.859Z,100660.42
2022-08-29T11:49:46.590Z,100663.38
2022-08-29T11:53:59.703Z,100670.62
2022-08-29T11:58:21.733Z,100666.42
2022-08-29T12:02:11.019Z,100675.49
2022-08-29T12:06:02.378Z,100675.45
2022-08-29T12:09:43.278Z,100677.10
2022-08-29T12:13:58.489Z,100669.58
2022-08-29T12:18:01.993Z,100666.75
2022-08-29T12:21:57.173Z,100667.65
2022-08-29T12:25:46.159Z,100669.98
2022-08-29T12:29:24.014Z,100670.89
2022-08-29T12:33:07.077Z,100677.45
2022-08-29T12:36:52.354Z,100681.56
2022-08-29T12:41:11.634Z,100680.96
2022-08-29T12:44:50.708Z,100682.31
2022-08-29T12:48:24.655Z,100683.79
2022-08-29T12:52:02.552Z,100683.27
2022-08-29T12:55:35.963Z,100679.39
2022-08-29T12:59:07.454Z,100688.75
2022-08-29T13:02:37.693Z,100689.55
2022-08-29T13:06:12.118Z,100683.55
2022-08-29T13:09:46.650Z,100677.98
2022-08-29T13:13:19.744Z,100679.78
2022-08-29T13:16:47.534Z,100677.89
2022-08-29T13:20:47.546Z,100663.42
2022-08-29T13:24:19.715Z,100671.00
2022-08-29T13:28:01.555Z,100665.17
2022-08-29T13:31:36.456Z,100671.13
2022-08-29T13:35:08.339Z,100663.23
2022-08-29T13:38:36.396Z,100666.15
2022-08-29T13:42:22.820Z,100662.13
2022-08-29T13:46:02.321Z,100661.13
2022-08-29T13:49:31.723Z,100662.98
2022-08-29T13:52:59.435Z,100659.27
2022-08-29T13:56:33.376Z,100657.59
2022-08-29T14:00:01.504Z,100656.46
2022-08-29T14:03:33.353Z,100661.66
2022-08-29T14:07:00.385Z,100665.73
2022-08-29T14:10:29.733Z,100665.46
2022-08-29T14:14:06.446Z,100663.98
2022-08-29T14:17:37.693Z,100669.19
2022-08-29T14:21:08.757Z,100668.39
2022-08-29T14:24:41.637Z,100669.63
2022-08-29T14:28:08.864Z,100665.38
2022-08-29T14:31:37.906Z,100670.39
2022-08-29T14:35:06.567Z,100667.42
2022-08-29T14:38:36.340Z,100667.05
2022-08-29T14:42:04.115Z,100665.22
2022-08-29T14:45:32.671Z,100663.45
2022-08-29T14:49:01.673Z,100667.72
2022-08-29T14:52:29.328Z,100664.52
2022-08-29T14:56:05.583Z,100662.04
2022-08-29T14:59:33.322Z,100659.93
2022-08-29T15:03:01.951Z,100662.41
2022-08-29T15:06:30.380Z,100662.34
2022-08-29T15:09:58.789Z,100661.83
2022-08-29T15:13:32.563Z,100657.21
2022-08-29T15:17:23.888Z,100652.23
2022-08-29T15:20:54.494Z,100654.33
2022-08-29T15:24:22.197Z,100661.36
2022-08-29T15:28:04.439Z,100664.67
2022-08-29T15:31:34.438Z,100662.17
2022-08-29T15:35:02.228Z,100659.57
2022-08-29T15:38:31.713Z,100655.96
2022-08-29T15:42:03.545Z,100654.73
2022-08-29T15:45:35.898Z,100658.27
2022-08-29T15:49:06.975Z,100649.39
2022-08-29T15:52:34.416Z,100651.59
2022-08-29T15:56:01.641Z,100654.66
2022-08-29T15:59:56.735Z,100651.27
2022-08-29T16:03:23.561Z,100653.43
2022-08-29T16:06:50.963Z,100654.56
2022-08-29T16:10:18.670Z,100657.27
2022-08-29T16:13:46.505Z,100662.13
2022-08-29T16:17:18.718Z,100660.55
2022-08-29T16:20:46.342Z,100665.59
2022-08-29T16:24:22.154Z,100666.80
2022-08-29T16:28:06.014Z,100671.90
2022-08-29T16:31:37.478Z,100669.23
2022-08-29T16:35:11.598Z,100674.41
2022-08-29T16:38:44.063Z,100674.88
2022-08-29T16:42:12.847Z,100682.91
2022-08-29T16:45:42.277Z,100681.60
2022-08-29T16:49:12.763Z,100683.33
2022-08-29T16:52:47.700Z,100683.88
2022-08-29T16:56:41.745Z,100687.77
2022-08-29T17:00:13.117Z,100689.95
2022-08-29T17:03:45.115Z,100690.08
2022-08-29T17:07:12.850Z,100693.89
2022-08-29T17:10:41.321Z,100695.21
2022-08-29T17:14:08.094Z,100693.36
2022-08-29T17:17:39.337Z,100695.66
2022-08-29T17:21:07.973Z,100699.86
2022-08-29T17:24:38.201Z,100704.02
2022-08-29T17:28:18.168Z,100706.30
2022-08-29T17:31:46.850Z,100707.37
2022-08-29T17:35:14.141Z,100713.34
2022-08-29T17:38:45.174Z,100713.02
2022-08-29T17:42:13.836Z,100711.52
2022-08-29T17:45:46.422Z,100711.05
2022-08-29T17:49:14.134Z,100710.68
2022-08-29T17:52:46.214Z,100713.70
2022-08-29T17:56:19.695Z,100712.35
2022-08-29T17:59:45.075Z,100716.05
2022-08-29T18:03:16.207Z,100716.44
2022-08-29T18:06:43.930Z,100716.27
2022-08-29T18:10:13.790Z,100717.81
2022-08-29T18:13:45.525Z,100723.15
2022-08-29T18:17:16.360Z,100725.30
2022-08-29T18:20:48.060Z,100725.58
2022-08-29T18:24:22.350Z,100729.30
2022-08-29T18:27:55.977Z,100730.11
2022-08-29T18:31:26.741Z,100736.48
2022-08-29T18:39:07.102Z,100741.22
2022-08-29T18:42:40.953Z,100739.10
2022-08-29T18:46:10.891Z,100743.41
2022-08-29T18:50:00.732Z,100744.17
2022-08-29T18:53:36.429Z,100745.23
2022-08-29T18:57:08.248Z,100747.58
2022-08-29T19:00:39.111Z,100740.91
2022-08-29T19:04:20.275Z,100749.27
2022-08-29T19:07:58.207Z,100753.72
2022-08-29T19:11:35.065Z,100749.46
2022-08-29T19:15:07.206Z,100752.20
2022-08-29T19:18:42.870Z,100752.02
2022-08-29T19:22:16.676Z,100751.09
2022-08-29T19:25:57.999Z,100753.42
2022-08-29T19:29:39.961Z,100757.48
2022-08-29T19:33:16.182Z,100756.66
2022-08-29T19:36:47.007Z,100751.39
2022-08-29T19:40:29.987Z,100756.81
2022-08-29T19:44:05.398Z,100761.17
2022-08-29T19:47:53.506Z,100755.69
2022-08-29T19:51:44.986Z,100761.17
2022-08-29T19:55:36.560Z,100762.98
2022-08-29T19:59:27.516Z,100763.76
2022-08-29T20:03:08.670Z,100768.79
2022-08-29T20:06:37.768Z,100770.67
2022-08-29T20:10:11.002Z,100778.96
2022-08-29T20:13:57.214Z,100778.51
2022-08-29T20:17:39.449Z,100781.78
2022-08-29T20:21:12.007Z,100782.80
2022-08-29T20:24:46.556Z,100787.73
2022-08-29T20:28:25.384Z,100790.25
2022-08-29T20:32:10.867Z,100793.33
2022-08-29T20:36:03.508Z,100798.68
2022-08-29T20:39:53.313Z,100796.73
2022-08-29T20:43:30.283Z,100798.40
2022-08-29T20:47:01.171Z,100802.00
2022-08-29T20:54:02.433Z,100802.27
2022-08-29T20:57:34.139Z,100802.14
2022-08-29T21:01:04.131Z,100804.83
2022-08-29T21:04:51.015Z,100804.86
2022-08-29T21:08:21.145Z,100811.88
2022-08-29T21:11:53.284Z,100815.73
2022-08-29T21:15:22.480Z,100813.86
2022-08-29T21:18:52.578Z,100816.54
2022-08-29T21:22:25.065Z,100817.15
2022-08-29T21:25:57.262Z,100819.19
2022-08-29T21:29:27.876Z,100817.30
2022-08-29T21:32:56.593Z,100814.45
2022-08-29T21:36:27.604Z,100813.24
2022-08-29T21:39:57.572Z,100811.21
2022-08-29T21:43:24.980Z,100813.73
2022-08-29T21:46:57.334Z,100818.83
2022-08-29T21:50:27.402Z,100823.55
2022-08-29T21:53:56.949Z,100827.60
2022-08-29T21:57:46.390Z,100832.94
2022-08-29T22:01:14.882Z,100834.77
2022-08-29T22:04:43.310Z,100837.17
2022-08-29T22:08:14.311Z,100841.60
2022-08-29T22:11:42.686Z,100842.09
2022-08-29T22:15:28.606Z,100850.77
2022-08-29T22:18:57.068Z,100850.26
2022-08-29T22:22:25.142Z,100858.23
2022-08-29T22:25:54.518Z,100857.18
2022-08-29T22:29:24.502Z,100855.21
2022-08-29T22:32:54.913Z,100850.59
2022-08-29T22:36:22.830Z,100856.40
2022-08-29T22:39:52.405Z,100859.52
2022-08-29T22:43:21.007Z,100864.71
2022-08-29T22:46:56.297Z,100865.13
2022-08-29T22:50:28.455Z,100869.45
2022-08-29T22:54:15.576Z,100874.20
2022-08-29T22:57:45.570Z,100880.56
2022-08-29T23:01:17.395Z,100880.19
2022-08-29T23:04:45.416Z,100884.71
2022-08-29T23:08:18.242Z,100888.19
2022-08-29T23:11:45.115Z,100891.16
2022-08-29T23:15:16.238Z,100887.75
2022-08-29T23:18:43.927Z,100888.73
2022-08-29T23:22:13.242Z,100885.29
2022-08-29T23:25:41.807Z,100883.17
2022-08-29T23:29:12.674Z,100886.33
2022-08-29T23:32:39.776Z,100894.41
2022-08-29T23:36:07.703Z,100893.60
2022-08-29T23:39:39.307Z,100886.72
2022-08-29T23:43:08.025Z,100892.91
2022-08-29T23:46:37.069Z,100896.75
2022-08-29T23:50:04.933Z,100894.27
2022-08-29T23:53:32.393Z,100893.36
2022-08-29T23:56:59.416Z,100890.16
